sensor_id;sensor_type;location;lat;lon;timestamp;pressure;altitude;pressure_sealevel;temperature;humidity
14120;BME280;7138;49.246;9.100;2023-01-28T00:02:07;99392.00;;;4.14;84.86
14120;BME280;7138;49.246;9.100;2023-01-28T00:04:33;99397.78;;;4.09;84.87
14120;BME280;7138;49.246;9.100;2023-01-28T00:06:58;99398.81;;;4.14;85.08
14120;BME280;7138;49.246;9.100;2023-01-28T00:09:24;99399.00;;;4.18;85.16
14120;BME280;7138;49.246;9.100;2023-01-28T00:11:50;99395.75;;;4.22;85.00
14120;BME280;7138;49.246;9.100;2023-01-28T00:14:16;99394.97;;;4.25;85.24
14120;BME280;7138;49.246;9.100;2023-01-28T00:16:42;99383.97;;;4.27;85.05
14120;BME280;7138;49.246;9.100;2023-01-28T00:19:09;99389.13;;;4.29;84.78
14120;BME280;7138;49.246;9.100;2023-01-28T00:21:35;99382.44;;;4.32;85.07
14120;BME280;7138;49.246;9.100;2023-01-28T00:24:01;99389.19;;;4.30;84.91
14120;BME280;7138;49.246;9.100;2023-01-28T00:26:27;99389.22;;;4.32;84.68
14120;BME280;7138;49.246;9.100;2023-01-28T00:28:53;99385.06;;;4.34;84.62
14120;BME280;7138;49.246;9.100;2023-01-28T00:31:21;99389.22;;;4.32;84.54
14120;BME280;7138;49.246;9.100;2023-01-28T00:33:49;99391.69;;;4.29;85.05
14120;BME280;7138;49.246;9.100;2023-01-28T00:36:18;99387.34;;;4.26;84.98
14120;BME280;7138;49.246;9.100;2023-01-28T00:38:49;99392.56;;;4.29;85.28
14120;BME280;7138;49.246;9.100;2023-01-28T00:41:18;99397.56;;;4.26;85.08
14120;BME280;7138;49.246;9.100;2023-01-28T00:43:47;99395.06;;;4.28;84.99
14120;BME280;7138;49.246;9.100;2023-01-28T00:46:14;99388.38;;;4.31;85.09
14120;BME280;7138;49.246;9.100;2023-01-28T00:48:41;99391.84;;;4.33;85.06
14120;BME280;7138;49.246;9.100;2023-01-28T00:51:11;99384.28;;;4.36;85.05
14120;BME280;7138;49.246;9.100;2023-01-28T00:53:39;99386.88;;;4.38;85.18
14120;BME280;7138;49.246;9.100;2023-01-28T00:56:07;99378.47;;;4.40;85.15
14120;BME280;7138;49.246;9.100;2023-01-28T00:58:34;99386.28;;;4.45;85.36
14120;BME280;7138;49.246;9.100;2023-01-28T01:01:07;99387.88;;;4.41;85.18
14120;BME280;7138;49.246;9.100;2023-01-28T01:03:34;99384.50;;;4.43;85.24
14120;BME280;7138;49.246;9.100;2023-01-28T01:05:59;99377.72;;;4.45;85.46
14120;BME280;7138;49.246;9.100;2023-01-28T01:08:25;99388.06;;;4.48;85.53
14120;BME280;7138;49.246;9.100;2023-01-28T01:11:01;99383.81;;;4.48;85.51
14120;BME280;7138;49.246;9.100;2023-01-28T01:13:28;99381.34;;;4.50;85.55
14120;BME280;7138;49.246;9.100;2023-01-28T01:16:02;99377.94;;;4.51;85.18
14120;BME280;7138;49.246;9.100;2023-01-28T01:18:28;99386.50;;;4.51;85.61
14120;BME280;7138;49.246;9.100;2023-01-28T01:20:54;99386.47;;;4.50;85.54
14120;BME280;7138;49.246;9.100;2023-01-28T01:23:24;99373.16;;;4.36;85.50
14120;BME280;7138;49.246;9.100;2023-01-28T01:25:50;99387.88;;;4.41;85.86
14120;BME280;7138;49.246;9.100;2023-01-28T01:28:18;99384.50;;;4.43;85.97
14120;BME280;7138;49.246;9.100;2023-01-28T01:30:45;99389.63;;;4.43;86.02
14120;BME280;7138;49.246;9.100;2023-01-28T01:33:11;99384.44;;;4.41;86.46
14120;BME280;7138;49.246;9.100;2023-01-28T01:35:37;99389.50;;;4.39;86.42
14120;BME280;7138;49.246;9.100;2023-01-28T01:38:03;99379.28;;;4.39;86.48
14120;BME280;7138;49.246;9.100;2023-01-28T01:40:29;99382.75;;;4.41;86.50
14120;BME280;7138;49.246;9.100;2023-01-28T01:42:55;99387.94;;;4.43;86.90
14120;BME280;7138;49.246;9.100;2023-01-28T01:45:22;99381.97;;;4.44;86.71
14120;BME280;7138;49.246;9.100;2023-01-28T01:47:57;99387.19;;;4.47;86.60
14120;BME280;7138;49.246;9.100;2023-01-28T01:50:31;99385.63;;;4.51;86.62
14120;BME280;7138;49.246;9.100;2023-01-28T01:53:04;99385.59;;;4.49;86.61
14120;BME280;7138;49.246;9.100;2023-01-28T01:55:34;99388.94;;;4.48;86.68
14120;BME280;7138;49.246;9.100;2023-01-28T01:58:08;99387.25;;;4.49;86.89
14120;BME280;7138;49.246;9.100;2023-01-28T02:00:37;99376.81;;;4.43;86.47
14120;BME280;7138;49.246;9.100;2023-01-28T02:03:03;99391.69;;;4.53;86.82
14120;BME280;7138;49.246;9.100;2023-01-28T02:05:29;99388.03;;;4.46;87.02
14120;BME280;7138;49.246;9.100;2023-01-28T02:07:57;99393.97;;;4.45;87.05
14120;BME280;7138;49.246;9.100;2023-01-28T02:10:47;99401.66;;;4.45;87.34
14120;BME280;7138;49.246;9.100;2023-01-28T02:13:16;99393.09;;;4.45;87.38
14120;BME280;7138;49.246;9.100;2023-01-28T02:15:46;99394.44;;;4.35;87.36
14120;BME280;7138;49.246;9.100;2023-01-28T02:18:13;99396.38;;;4.40;87.51
14120;BME280;7138;49.246;9.100;2023-01-28T02:21:06;99392.28;;;4.46;87.73
14120;BME280;7138;49.246;9.100;2023-01-28T02:24:02;99398.22;;;4.45;87.82
14120;BME280;7138;49.246;9.100;2023-01-28T02:27:02;99396.50;;;4.44;88.35
14120;BME280;7138;49.246;9.100;2023-01-28T02:29:41;99397.22;;;4.41;88.13
14120;BME280;7138;49.246;9.100;2023-01-28T02:32:15;99398.00;;;4.38;88.36
14120;BME280;7138;49.246;9.100;2023-01-28T02:34:46;99400.63;;;4.40;87.76
14120;BME280;7138;49.246;9.100;2023-01-28T02:37:17;99391.19;;;4.39;88.60
14120;BME280;7138;49.246;9.100;2023-01-28T02:39:53;99400.53;;;4.37;88.61
14120;BME280;7138;49.246;9.100;2023-01-28T02:42:26;99390.72;;;4.25;88.86
14120;BME280;7138;49.246;9.100;2023-01-28T02:44:55;99412.16;;;4.29;89.11
14120;BME280;7138;49.246;9.100;2023-01-28T02:47:21;99408.09;;;4.34;88.66
14120;BME280;7138;49.246;9.100;2023-01-28T02:50:09;99402.78;;;4.29;89.05
14120;BME280;7138;49.246;9.100;2023-01-28T02:52:55;99407.16;;;4.32;89.03
14120;BME280;7138;49.246;9.100;2023-01-28T02:55:51;99404.44;;;4.27;89.83
14120;BME280;7138;49.246;9.100;2023-01-28T02:58:30;99409.56;;;4.27;89.74
14120;BME280;7138;49.246;9.100;2023-01-28T03:01:10;99405.13;;;4.23;89.37
14120;BME280;7138;49.246;9.100;2023-01-28T03:03:49;99409.66;;;4.30;89.73
14120;BME280;7138;49.246;9.100;2023-01-28T03:06:23;99410.44;;;4.28;89.74
14120;BME280;7138;49.246;9.100;2023-01-28T03:08:56;99404.69;;;4.35;89.91
14120;BME280;7138;49.246;9.100;2023-01-28T03:11:46;99411.41;;;4.31;90.16
14120;BME280;7138;49.246;9.100;2023-01-28T03:14:34;99409.44;;;4.24;90.49
14120;BME280;7138;49.246;9.100;2023-01-28T03:17:26;99405.88;;;4.19;90.69
14120;BME280;7138;49.246;9.100;2023-01-28T03:20:13;99403.47;;;4.24;90.72
14120;BME280;7138;49.246;9.100;2023-01-28T03:23:06;99418.91;;;4.27;90.72
14120;BME280;7138;49.246;9.100;2023-01-28T03:25:55;99419.72;;;4.26;90.93
14120;BME280;7138;49.246;9.100;2023-01-28T03:28:45;99419.50;;;4.20;91.04
14120;BME280;7138;49.246;9.100;2023-01-28T03:31:32;99421.56;;;4.28;90.73
14120;BME280;7138;49.246;9.100;2023-01-28T03:34:20;99417.34;;;4.30;90.74
14120;BME280;7138;49.246;9.100;2023-01-28T03:37:07;99421.38;;;4.24;91.21
14120;BME280;7138;49.246;9.100;2023-01-28T03:39:34;99410.91;;;4.18;91.23
14120;BME280;7138;49.246;9.100;2023-01-28T03:42:04;99411.59;;;4.14;91.56
14120;BME280;7138;49.246;9.100;2023-01-28T03:44:31;99422.59;;;4.11;91.79
14120;BME280;7138;49.246;9.100;2023-01-28T03:47:20;99424.38;;;4.12;92.32
14120;BME280;7138;49.246;9.100;2023-01-28T03:49:51;99432.97;;;4.14;92.05
14120;BME280;7138;49.246;9.100;2023-01-28T03:52:19;99426.97;;;4.14;92.50
14120;BME280;7138;49.246;9.100;2023-01-28T03:54:46;99431.25;;;4.13;92.60
14120;BME280;7138;49.246;9.100;2023-01-28T03:57:13;99430.47;;;4.16;92.42
14120;BME280;7138;49.246;9.100;2023-01-28T03:59:39;99432.97;;;4.14;93.18
14120;BME280;7138;49.246;9.100;2023-01-28T04:02:06;99440.63;;;4.14;93.34
14120;BME280;7138;49.246;9.100;2023-01-28T04:04:32;99435.81;;;4.22;93.36
14120;BME280;7138;49.246;9.100;2023-01-28T04:06:59;99443.19;;;4.14;94.03
14120;BME280;7138;49.246;9.100;2023-01-28T04:09:25;99444.94;;;4.15;94.28
14120;BME280;7138;49.246;9.100;2023-01-28T04:11:51;99438.38;;;4.22;93.71
14120;BME280;7138;49.246;9.100;2023-01-28T04:14:17;99445.97;;;4.20;94.60
14120;BME280;7138;49.246;9.100;2023-01-28T04:16:44;99442.38;;;4.15;94.95
14120;BME280;7138;49.246;9.100;2023-01-28T04:19:11;99444.06;;;4.15;94.89
14120;BME280;7138;49.246;9.100;2023-01-28T04:21:37;99444.16;;;4.16;94.82
14120;BME280;7138;49.246;9.100;2023-01-28T04:24:05;99449.38;;;4.19;94.95
14120;BME280;7138;49.246;9.100;2023-01-28T04:26:31;99445.97;;;4.20;94.71
14120;BME280;7138;49.246;9.100;2023-01-28T04:28:57;99460.19;;;4.12;95.13
14120;BME280;7138;49.246;9.100;2023-01-28T04:31:23;99459.31;;;4.12;95.29
14120;BME280;7138;49.246;9.100;2023-01-28T04:33:49;99462.63;;;4.09;94.98
14120;BME280;7138;49.246;9.100;2023-01-28T04:36:15;99460.06;;;4.09;95.62
14120;BME280;7138;49.246;9.100;2023-01-28T04:38:41;99466.72;;;4.04;96.03
14120;BME280;7138;49.246;9.100;2023-01-28T04:41:09;99466.72;;;4.04;96.04
14120;BME280;7138;49.246;9.100;2023-01-28T04:43:35;99468.31;;;4.02;96.16
14120;BME280;7138;49.246;9.100;2023-01-28T04:46:00;99468.22;;;3.99;96.41
14120;BME280;7138;49.246;9.100;2023-01-28T04:48:26;99470.88;;;4.02;96.12
14120;BME280;7138;49.246;9.100;2023-01-28T04:50:55;99462.09;;;3.96;96.95
14120;BME280;7138;49.246;9.100;2023-01-28T04:53:21;99470.53;;;3.93;97.14
14120;BME280;7138;49.246;9.100;2023-01-28T04:55:47;99480.09;;;3.97;96.59
14120;BME280;7138;49.246;9.100;2023-01-28T04:58:14;99472.41;;;3.97;97.01
14120;BME280;7138;49.246;9.100;2023-01-28T05:00:40;99473.81;;;3.89;96.92
14120;BME280;7138;49.246;9.100;2023-01-28T05:03:06;99482.75;;;3.78;97.54
14120;BME280;7138;49.246;9.100;2023-01-28T05:05:32;99468.41;;;3.81;97.42
14120;BME280;7138;49.246;9.100;2023-01-28T05:07:58;99478.78;;;3.86;97.60
14120;BME280;7138;49.246;9.100;2023-01-28T05:10:26;99481.22;;;3.83;97.49
14120;BME280;7138;49.246;9.100;2023-01-28T05:12:52;99483.22;;;3.90;97.55
14120;BME280;7138;49.246;9.100;2023-01-28T05:15:20;99477.28;;;3.91;97.14
14120;BME280;7138;49.246;9.100;2023-01-28T05:17:46;99481.59;;;3.92;97.22
14120;BME280;7138;49.246;9.100;2023-01-28T05:20:13;99477.53;;;3.97;96.94
14120;BME280;7138;49.246;9.100;2023-01-28T05:22:40;99480.88;;;3.96;97.30
14120;BME280;7138;49.246;9.100;2023-01-28T05:25:08;99487.06;;;4.01;96.90
14120;BME280;7138;49.246;9.100;2023-01-28T05:27:34;99484.66;;;4.06;96.67
14120;BME280;7138;49.246;9.100;2023-01-28T05:30:00;99486.53;;;4.10;96.46
14120;BME280;7138;49.246;9.100;2023-01-28T05:32:27;99485.78;;;4.12;96.53
14120;BME280;7138;49.246;9.100;2023-01-28T05:34:53;99484.03;;;4.11;96.22
14120;BME280;7138;49.246;9.100;2023-01-28T05:37:19;99485.09;;;4.16;96.04
14120;BME280;7138;49.246;9.100;2023-01-28T05:39:44;99485.13;;;4.18;96.09
14120;BME280;7138;49.246;9.100;2023-01-28T05:42:10;99493.72;;;4.20;95.99
14120;BME280;7138;49.246;9.100;2023-01-28T05:44:36;99494.59;;;4.20;95.82
14120;BME280;7138;49.246;9.100;2023-01-28T05:47:02;99495.44;;;4.19;96.22
14120;BME280;7138;49.246;9.100;2023-01-28T05:49:29;99497.16;;;4.20;96.01
14120;BME280;7138;49.246;9.100;2023-01-28T05:51:55;99504.06;;;4.23;95.81
14120;BME280;7138;49.246;9.100;2023-01-28T05:54:24;99499.69;;;4.19;95.95
14120;BME280;7138;49.246;9.100;2023-01-28T05:56:50;99508.91;;;4.15;96.27
14120;BME280;7138;49.246;9.100;2023-01-28T05:59:16;99502.88;;;4.13;96.25
14120;BME280;7138;49.246;9.100;2023-01-28T06:01:41;99509.56;;;4.10;96.30
14120;BME280;7138;49.246;9.100;2023-01-28T06:04:07;99515.22;;;4.01;96.79
14120;BME280;7138;49.246;9.100;2023-01-28T06:06:35;99511.81;;;4.02;96.91
14120;BME280;7138;49.246;9.100;2023-01-28T06:09:00;99522.00;;;4.01;96.64
14120;BME280;7138;49.246;9.100;2023-01-28T06:11:26;99521.78;;;3.95;97.22
14120;BME280;7138;49.246;9.100;2023-01-28T06:13:52;99533.38;;;3.86;97.62
14120;BME280;7138;49.246;9.100;2023-01-28T06:16:18;99530.78;;;3.85;97.72
14120;BME280;7138;49.246;9.100;2023-01-28T06:18:44;99532.25;;;3.80;97.99
14120;BME280;7138;49.246;9.100;2023-01-28T06:21:10;99539.00;;;3.78;97.94
14120;BME280;7138;49.246;9.100;2023-01-28T06:23:37;99544.81;;;3.74;98.12
14120;BME280;7138;49.246;9.100;2023-01-28T06:26:03;99550.88;;;3.76;98.26
14120;BME280;7138;49.246;9.100;2023-01-28T06:28:29;99553.56;;;3.79;98.05
14120;BME280;7138;49.246;9.100;2023-01-28T06:30:55;99551.13;;;3.82;97.80
14120;BME280;7138;49.246;9.100;2023-01-28T06:33:21;99549.31;;;3.79;98.08
14120;BME280;7138;49.246;9.100;2023-01-28T06:35:48;99548.47;;;3.80;97.84
14120;BME280;7138;49.246;9.100;2023-01-28T06:38:14;99553.22;;;3.71;98.43
14120;BME280;7138;49.246;9.100;2023-01-28T06:40:41;99557.59;;;3.74;98.61
14120;BME280;7138;49.246;9.100;2023-01-28T06:43:07;99562.03;;;3.78;98.08
14120;BME280;7138;49.246;9.100;2023-01-28T06:45:33;99559.47;;;3.78;98.17
14120;BME280;7138;49.246;9.100;2023-01-28T06:47:59;99551.00;;;3.79;98.28
14120;BME280;7138;49.246;9.100;2023-01-28T06:50:25;99560.25;;;3.77;98.53
14120;BME280;7138;49.246;9.100;2023-01-28T06:52:51;99561.84;;;3.73;98.94
14120;BME280;7138;49.246;9.100;2023-01-28T06:55:17;99559.78;;;3.65;99.27
14120;BME280;7138;49.246;9.100;2023-01-28T06:57:44;99565.47;;;3.58;99.73
14120;BME280;7138;49.246;9.100;2023-01-28T07:00:12;99574.69;;;3.54;100.00
14120;BME280;7138;49.246;9.100;2023-01-28T07:02:40;99575.19;;;3.46;100.00
14120;BME280;7138;49.246;9.100;2023-01-28T07:05:06;99573.31;;;3.42;100.00
14120;BME280;7138;49.246;9.100;2023-01-28T07:07:33;99575.19;;;3.46;100.00
14120;BME280;7138;49.246;9.100;2023-01-28T07:09:59;99569.59;;;3.54;100.00
14120;BME280;7138;49.246;9.100;2023-01-28T07:12:24;99574.03;;;3.58;99.90
14120;BME280;7138;49.246;9.100;2023-01-28T07:14:51;99568.97;;;3.60;99.79
14120;BME280;7138;49.246;9.100;2023-01-28T07:17:17;99579.31;;;3.63;99.52
14120;BME280;7138;49.246;9.100;2023-01-28T07:19:43;99582.88;;;3.66;99.43
14120;BME280;7138;49.246;9.100;2023-01-28T07:22:09;99576.19;;;3.70;99.77
14120;BME280;7138;49.246;9.100;2023-01-28T07:24:35;99579.00;;;3.76;99.53
14120;BME280;7138;49.246;9.100;2023-01-28T07:27:01;99577.38;;;3.78;99.36
14120;BME280;7138;49.246;9.100;2023-01-28T07:29:26;99585.16;;;3.81;98.82
14120;BME280;7138;49.246;9.100;2023-01-28T07:31:54;99586.84;;;3.80;98.77
14120;BME280;7138;49.246;9.100;2023-01-28T07:34:19;99586.03;;;3.81;99.32
14120;BME280;7138;49.246;9.100;2023-01-28T07:36:45;99570.50;;;3.77;98.95
14120;BME280;7138;49.246;9.100;2023-01-28T07:39:11;99590.66;;;3.90;98.77
14120;BME280;7138;49.246;9.100;2023-01-28T07:41:37;99591.66;;;3.94;98.28
14120;BME280;7138;49.246;9.100;2023-01-28T07:44:03;99594.28;;;3.95;98.57
14120;BME280;7138;49.246;9.100;2023-01-28T07:46:29;99594.16;;;3.92;98.59
14120;BME280;7138;49.246;9.100;2023-01-28T07:48:57;99595.84;;;3.92;98.50
14120;BME280;7138;49.246;9.100;2023-01-28T07:51:22;99601.72;;;3.89;98.56
14120;BME280;7138;49.246;9.100;2023-01-28T07:53:48;99598.28;;;3.89;98.56
14120;BME280;7138;49.246;9.100;2023-01-28T07:56:14;99599.16;;;3.89;98.60
14120;BME280;7138;49.246;9.100;2023-01-28T07:58:40;99595.75;;;3.90;98.26
14120;BME280;7138;49.246;9.100;2023-01-28T08:01:06;99603.63;;;3.95;98.01
14120;BME280;7138;49.246;9.100;2023-01-28T08:03:31;99605.44;;;3.97;98.17
14120;BME280;7138;49.246;9.100;2023-01-28T08:05:59;99597.63;;;3.94;97.74
14120;BME280;7138;49.246;9.100;2023-01-28T08:08:26;99608.78;;;3.96;98.35
14120;BME280;7138;49.246;9.100;2023-01-28T08:10:52;99607.75;;;3.91;98.42
14120;BME280;7138;49.246;9.100;2023-01-28T08:13:19;99608.66;;;3.93;98.40
14120;BME280;7138;49.246;9.100;2023-01-28T08:15:45;99609.56;;;3.94;98.21
14120;BME280;7138;49.246;9.100;2023-01-28T08:18:14;99604.69;;;4.00;97.92
14120;BME280;7138;49.246;9.100;2023-01-28T08:20:41;99614.28;;;4.05;97.98
14120;BME280;7138;49.246;9.100;2023-01-28T08:23:15;99604.25;;;4.10;97.74
14120;BME280;7138;49.246;9.100;2023-01-28T08:25:41;99609.47;;;4.13;97.50
14120;BME280;7138;49.246;9.100;2023-01-28T08:28:09;99615.63;;;4.18;97.41
14120;BME280;7138;49.246;9.100;2023-01-28T08:30:36;99620.00;;;4.20;97.25
14120;BME280;7138;49.246;9.100;2023-01-28T08:33:04;99614.00;;;4.20;96.91
14120;BME280;7138;49.246;9.100;2023-01-28T08:35:32;99618.94;;;4.15;97.02
14120;BME280;7138;49.246;9.100;2023-01-28T08:37:59;99626.63;;;4.15;96.94
14120;BME280;7138;49.246;9.100;2023-01-28T08:40:28;99630.09;;;4.17;96.74
14120;BME280;7138;49.246;9.100;2023-01-28T08:42:55;99618.88;;;4.14;96.89
14120;BME280;7138;49.246;9.100;2023-01-28T08:45:23;99616.19;;;4.11;96.88
14120;BME280;7138;49.246;9.100;2023-01-28T08:47:52;99619.50;;;4.08;96.96
14120;BME280;7138;49.246;9.100;2023-01-28T08:50:19;99623.72;;;4.06;96.89
14120;BME280;7138;49.246;9.100;2023-01-28T08:52:46;99621.03;;;4.03;96.89
14120;BME280;7138;49.246;9.100;2023-01-28T08:55:15;99627.53;;;3.95;97.35
14120;BME280;7138;49.246;9.100;2023-01-28T08:57:42;99634.31;;;3.95;97.40
14120;BME280;7138;49.246;9.100;2023-01-28T09:00:10;99631.91;;;3.98;97.37
14120;BME280;7138;49.246;9.100;2023-01-28T09:02:36;99633.44;;;3.94;97.10
14120;BME280;7138;49.246;9.100;2023-01-28T09:05:03;99641.13;;;3.94;97.21
14120;BME280;7138;49.246;9.100;2023-01-28T09:07:30;99637.81;;;3.97;97.47
14120;BME280;7138;49.246;9.100;2023-01-28T09:09:56;99636.06;;;3.96;97.32
14120;BME280;7138;49.246;9.100;2023-01-28T09:12:22;99623.72;;;3.85;97.40
14120;BME280;7138;49.246;9.100;2023-01-28T09:14:49;99627.22;;;3.88;97.87
14120;BME280;7138;49.246;9.100;2023-01-28T09:17:17;99642.41;;;4.05;97.86
14120;BME280;7138;49.246;9.100;2023-01-28T09:19:44;99642.66;;;4.11;97.06
14120;BME280;7138;49.246;9.100;2023-01-28T09:22:10;99635.50;;;4.03;96.52
14120;BME280;7138;49.246;9.100;2023-01-28T09:24:36;99641.78;;;4.11;97.30
14120;BME280;7138;49.246;9.100;2023-01-28T09:27:02;99643.75;;;4.16;97.13
14120;BME280;7138;49.246;9.100;2023-01-28T09:29:28;99649.16;;;4.24;97.00
14120;BME280;7138;49.246;9.100;2023-01-28T09:31:55;99652.81;;;4.30;96.41
14120;BME280;7138;49.246;9.100;2023-01-28T09:34:21;99649.34;;;4.28;95.57
14120;BME280;7138;49.246;9.100;2023-01-28T09:36:47;99662.31;;;4.33;95.66
14120;BME280;7138;49.246;9.100;2023-01-28T09:39:12;99661.38;;;4.31;96.20
14120;BME280;7138;49.246;9.100;2023-01-28T09:41:53;99652.06;;;4.33;96.09
14120;BME280;7138;49.246;9.100;2023-01-28T09:44:41;99664.34;;;4.41;96.33
14120;BME280;7138;49.246;9.100;2023-01-28T09:47:23;99668.66;;;4.43;95.71
14120;BME280;7138;49.246;9.100;2023-01-28T09:49:53;99671.97;;;4.40;95.58
14120;BME280;7138;49.246;9.100;2023-01-28T09:52:24;99653.63;;;4.29;95.30
14120;BME280;7138;49.246;9.100;2023-01-28T09:54:58;99667.66;;;4.39;94.57
14120;BME280;7138;49.246;9.100;2023-01-28T09:57:35;99676.97;;;4.37;94.87
14120;BME280;7138;49.246;9.100;2023-01-28T10:00:11;99678.81;;;4.41;94.89
14120;BME280;7138;49.246;9.100;2023-01-28T10:02:54;99673.59;;;4.38;94.89
14120;BME280;7138;49.246;9.100;2023-01-28T10:05:32;99678.94;;;4.44;95.04
14120;BME280;7138;49.246;9.100;2023-01-28T10:08:15;99678.66;;;4.36;94.61
14120;BME280;7138;49.246;9.100;2023-01-28T10:10:52;99683.03;;;4.39;95.08
14120;BME280;7138;49.246;9.100;2023-01-28T10:13:27;99684.69;;;4.38;94.43
14120;BME280;7138;49.246;9.100;2023-01-28T10:16:11;99683.22;;;4.44;94.22
14120;BME280;7138;49.246;9.100;2023-01-28T10:18:49;99681.22;;;4.36;94.10
14120;BME280;7138;49.246;9.100;2023-01-28T10:21:23;99676.91;;;4.35;94.43
14120;BME280;7138;49.246;9.100;2023-01-28T10:24:00;99671.78;;;4.35;94.77
14120;BME280;7138;49.246;9.100;2023-01-28T10:26:34;99677.97;;;4.40;94.73
14120;BME280;7138;49.246;9.100;2023-01-28T10:29:10;99667.75;;;4.40;94.25
14120;BME280;7138;49.246;9.100;2023-01-28T10:31:49;99671.75;;;4.34;94.10
14120;BME280;7138;49.246;9.100;2023-01-28T10:34:18;99667.66;;;4.39;94.85
14120;BME280;7138;49.246;9.100;2023-01-28T10:36:44;99665.47;;;4.48;95.18
14120;BME280;7138;49.246;9.100;2023-01-28T10:39:14;99666.97;;;4.43;95.94
14120;BME280;7138;49.246;9.100;2023-01-28T10:41:40;99663.69;;;4.47;95.80
14120;BME280;7138;49.246;9.100;2023-01-28T10:44:15;99671.50;;;4.50;94.88
14120;BME280;7138;49.246;9.100;2023-01-28T10:46:45;99670.16;;;4.60;94.44
14120;BME280;7138;49.246;9.100;2023-01-28T10:49:20;99675.75;;;4.72;94.33
14120;BME280;7138;49.246;9.100;2023-01-28T10:51:47;99668.44;;;4.81;93.32
14120;BME280;7138;49.246;9.100;2023-01-28T10:54:20;99680.19;;;4.76;92.80
14120;BME280;7138;49.246;9.100;2023-01-28T10:56:47;99676.81;;;4.77;94.09
14120;BME280;7138;49.246;9.100;2023-01-28T10:59:21;99674.28;;;4.77;93.63
14120;BME280;7138;49.246;9.100;2023-01-28T11:01:54;99676.88;;;4.78;93.50
14120;BME280;7138;49.246;9.100;2023-01-28T11:04:26;99670.81;;;4.76;92.29
14120;BME280;7138;49.246;9.100;2023-01-28T11:06:56;99679.63;;;4.83;92.63
14120;BME280;7138;49.246;9.100;2023-01-28T11:09:26;99688.53;;;4.70;91.69
14120;BME280;7138;49.246;9.100;2023-01-28T11:11:53;99690.91;;;4.66;91.93
14120;BME280;7138;49.246;9.100;2023-01-28T11:14:22;99687.28;;;4.61;91.41
14120;BME280;7138;49.246;9.100;2023-01-28T11:16:51;99692.31;;;4.58;91.35
14120;BME280;7138;49.246;9.100;2023-01-28T11:19:20;99686.13;;;4.53;92.17
14120;BME280;7138;49.246;9.100;2023-01-28T11:21:52;99691.38;;;4.56;91.92
14120;BME280;7138;49.246;9.100;2023-01-28T11:24:23;99681.47;;;4.65;91.47
14120;BME280;7138;49.246;9.100;2023-01-28T11:26:54;99680.78;;;4.69;93.20
14120;BME280;7138;49.246;9.100;2023-01-28T11:29:28;99689.69;;;4.78;92.47
14120;BME280;7138;49.246;9.100;2023-01-28T11:31:55;99678.75;;;4.82;91.59
14120;BME280;7138;49.246;9.100;2023-01-28T11:34:27;99680.34;;;4.80;90.49
14120;BME280;7138;49.246;9.100;2023-01-28T11:37:02;99678.84;;;4.85;90.25
14120;BME280;7138;49.246;9.100;2023-01-28T11:39:29;99679.00;;;4.90;90.21
14120;BME280;7138;49.246;9.100;2023-01-28T11:42:10;99685.09;;;4.92;89.06
14120;BME280;7138;49.246;9.100;2023-01-28T11:44:38;99679.53;;;4.81;88.18
14120;BME280;7138;49.246;9.100;2023-01-28T11:47:22;99683.78;;;4.81;88.88
14120;BME280;7138;49.246;9.100;2023-01-28T11:50:17;99689.28;;;4.68;87.72
14120;BME280;7138;49.246;9.100;2023-01-28T11:53:01;99691.50;;;4.59;89.08
14120;BME280;7138;49.246;9.100;2023-01-28T11:56:00;99693.22;;;4.60;89.23
14120;BME280;7138;49.246;9.100;2023-01-28T11:58:41;99694.91;;;4.59;89.67
14120;BME280;7138;49.246;9.100;2023-01-28T12:01:15;99686.59;;;4.65;89.90
14120;BME280;7138;49.246;9.100;2023-01-28T12:04:12;99682.44;;;4.68;89.88
14120;BME280;7138;49.246;9.100;2023-01-28T12:07:10;99683.41;;;4.70;88.98
14120;BME280;7138;49.246;9.100;2023-01-28T12:09:53;99684.84;;;4.64;88.01
14120;BME280;7138;49.246;9.100;2023-01-28T12:12:52;99689.22;;;4.66;88.16
14120;BME280;7138;49.246;9.100;2023-01-28T12:15:59;99683.06;;;4.61;88.17
14120;BME280;7138;49.246;9.100;2023-01-28T12:18:59;99684.44;;;4.75;88.05
14120;BME280;7138;49.246;9.100;2023-01-28T12:21:47;99682.09;;;4.81;87.43
14120;BME280;7138;49.246;9.100;2023-01-28T12:24:37;99676.63;;;4.72;86.88
14120;BME280;7138;49.246;9.100;2023-01-28T12:27:25;99675.19;;;4.79;87.94
14120;BME280;7138;49.246;9.100;2023-01-28T12:30:08;99662.88;;;4.92;87.12
14120;BME280;7138;49.246;9.100;2023-01-28T12:32:43;99655.06;;;4.89;87.00
14120;BME280;7138;49.246;9.100;2023-01-28T12:35:29;99657.03;;;4.95;85.84
14120;BME280;7138;49.246;9.100;2023-01-28T12:38:05;99657.34;;;5.04;86.20
14120;BME280;7138;49.246;9.100;2023-01-28T12:40:53;99660.28;;;5.15;86.47
14120;BME280;7138;49.246;9.100;2023-01-28T12:43:44;99662.03;;;5.16;85.73
14120;BME280;7138;49.246;9.100;2023-01-28T12:46:23;99666.28;;;5.15;86.95
14120;BME280;7138;49.246;9.100;2023-01-28T12:48:58;99653.69;;;5.21;85.78
14120;BME280;7138;49.246;9.100;2023-01-28T12:51:30;99653.69;;;5.21;84.71
14120;BME280;7138;49.246;9.100;2023-01-28T12:54:04;99643.88;;;5.10;84.54
14120;BME280;7138;49.246;9.100;2023-01-28T12:56:39;99657.19;;;5.23;85.79
14120;BME280;7138;49.246;9.100;2023-01-28T12:59:15;99646.19;;;5.26;84.95
14120;BME280;7138;49.246;9.100;2023-01-28T13:01:50;99643.97;;;5.36;85.23
14120;BME280;7138;49.246;9.100;2023-01-28T13:04:31;99651.66;;;5.36;85.27
14120;BME280;7138;49.246;9.100;2023-01-28T13:07:05;99640.50;;;5.34;83.09
14120;BME280;7138;49.246;9.100;2023-01-28T13:09:35;99638.31;;;5.21;82.45
14120;BME280;7138;49.246;9.100;2023-01-28T13:12:04;99646.22;;;5.27;83.10
14120;BME280;7138;49.246;9.100;2023-01-28T13:14:33;99648.19;;;5.34;83.42
14120;BME280;7138;49.246;9.100;2023-01-28T13:17:09;99635.09;;;5.27;83.93
14120;BME280;7138;49.246;9.100;2023-01-28T13:19:38;99633.38;;;5.26;83.76
14120;BME280;7138;49.246;9.100;2023-01-28T13:22:29;99646.84;;;5.44;82.91
14120;BME280;7138;49.246;9.100;2023-01-28T13:24:55;99651.00;;;5.42;83.77
14120;BME280;7138;49.246;9.100;2023-01-28T13:27:24;99646.75;;;5.42;80.97
14120;BME280;7138;49.246;9.100;2023-01-28T13:30:05;99649.09;;;5.36;80.67
14120;BME280;7138;49.246;9.100;2023-01-28T13:32:34;99656.91;;;5.39;81.43
14120;BME280;7138;49.246;9.100;2023-01-28T13:35:04;99654.34;;;5.39;82.60
14120;BME280;7138;49.246;9.100;2023-01-28T13:37:34;99654.78;;;5.28;81.63
14120;BME280;7138;49.246;9.100;2023-01-28T13:40:23;99659.31;;;5.35;83.01
14120;BME280;7138;49.246;9.100;2023-01-28T13:43:00;99662.84;;;5.38;83.17
14120;BME280;7138;49.246;9.100;2023-01-28T13:45:28;99654.34;;;5.39;82.34